Time;durP1;ratioP1;P1;durP2;ratioP2;P2;SDS_P1;SDS_P2;PMS_P1;PMS_P2;Temp;Humidity;BMP_temperature;BMP_pressure;BME280_temperature;BME280_humidity;BME280_pressure;Samples;Min_cycle;Max_cycle;Signal;HPM_P1;HPM_P2
2023/06/03 00:02:09;;;;;;;14.18;9.55;;;;;;;10.88;100.00;102079.72;4993444;28;20034;-54
2023/06/03 00:04:41;;;;;;;12.73;9.23;;;;;;;11.19;100.00;102144.25;4993135;28;20501;-53
2023/06/03 00:07:07;;;;;;;15.98;9.32;;;;;;;11.11;100.00;102136.47;4981493;28;20082;-53
2023/06/03 00:09:32;;;;;;;14.45;9.85;;;;;;;11.21;100.00;102156.50;5013263;28;20034;-56
2023/06/03 00:11:57;;;;;;;15.75;9.68;;;;;;;11.17;100.00;102154.84;5011568;28;20510;-53
2023/06/03 00:14:23;;;;;;;12.75;9.00;;;;;;;11.11;100.00;102135.59;5012130;28;20045;-58
2023/06/03 00:16:48;;;;;;;13.27;10.10;;;;;;;11.15;100.00;102135.50;5012780;28;20026;-57
2023/06/03 00:19:14;;;;;;;15.65;9.73;;;;;;;11.14;100.00;102143.47;4995348;28;20041;-58
2023/06/03 00:21:49;;;;;;;11.30;8.95;;;;;;;10.71;100.00;102077.31;5012688;28;20547;-57
2023/06/03 00:24:22;;;;;;;14.20;9.30;;;;;;;10.71;100.00;102066.78;5009901;28;20069;-57
2023/06/03 00:26:48;;;;;;;12.70;9.13;;;;;;;11.05;100.00;102119.88;5011091;28;20119;-58
2023/06/03 00:29:13;;;;;;;10.02;9.00;;;;;;;11.13;100.00;102139.94;4995076;28;20061;-57
2023/06/03 00:31:38;;;;;;;11.18;8.07;;;;;;;11.03;100.00;102127.78;5012025;28;20033;-57
2023/06/03 00:34:04;;;;;;;12.80;8.88;;;;;;;11.05;100.00;102135.69;5011680;28;20034;-58
2023/06/03 00:36:29;;;;;;;11.10;8.60;;;;;;;11.10;100.00;102142.63;5012705;28;20037;-58
2023/06/03 00:38:54;;;;;;;13.05;9.25;;;;;;;11.14;100.00;102156.63;4993887;28;20124;-55
2023/06/03 00:41:20;;;;;;;12.55;8.38;;;;;;;11.12;100.00;102142.63;5012634;28;20481;-58
2023/06/03 00:43:45;;;;;;;9.88;8.18;;;;;;;11.15;100.00;102140.78;5012504;28;20387;-55
2023/06/03 00:46:11;;;;;;;13.07;8.88;;;;;;;10.84;100.00;102078.00;5011328;28;20041;-58
2023/06/03 00:48:38;;;;;;;10.90;8.63;;;;;;;11.15;100.00;102147.81;4994534;28;20116;-57
2023/06/03 00:51:03;;;;;;;11.52;8.20;;;;;;;10.72;100.00;102072.03;5011455;28;20092;-58
2023/06/03 00:53:29;;;;;;;9.85;7.57;;;;;;;11.15;100.00;102137.28;4994961;28;20346;-57
2023/06/03 00:55:55;;;;;;;11.98;8.35;;;;;;;10.66;100.00;102047.53;5011556;28;20038;-58
2023/06/03 00:58:20;;;;;;;14.00;8.18;;;;;;;11.14;100.00;102143.47;5012490;28;20254;-57
2023/06/03 01:00:46;;;;;;;11.38;8.38;;;;;;;11.11;100.00;102131.19;5011071;28;20564;-56
2023/06/03 01:03:14;;;;;;;11.23;8.40;;;;;;;11.09;100.00;102126.84;5012243;28;20030;-58
2023/06/03 01:05:45;;;;;;;9.50;7.70;;;;;;;10.64;100.00;102051.94;5012086;28;20478;-58
2023/06/03 01:08:44;;;;;;;12.43;8.18;;;;;;;11.06;100.00;102140.91;4984349;28;20061;-56
2023/06/03 01:11:16;;;;;;;10.93;8.30;;;;;;;10.96;100.00;102120.00;4949421;28;20042;-57
2023/06/03 01:13:51;;;;;;;11.10;7.85;;;;;;;10.59;100.00;102059.94;4990317;28;20073;-58
2023/06/03 01:16:17;;;;;;;10.75;8.13;;;;;;;10.30;100.00;102021.69;4991510;28;20081;-58
2023/06/03 01:18:44;;;;;;;12.23;7.72;;;;;;;10.59;100.00;102069.56;4992481;28;20027;-58
2023/06/03 01:21:12;;;;;;;12.50;8.30;;;;;;;10.83;100.00;102111.38;4991537;28;20086;-58
2023/06/03 01:23:41;;;;;;;11.70;8.65;;;;;;;10.55;100.00;102074.00;4992501;28;20045;-58
2023/06/03 01:26:07;;;;;;;10.55;7.60;;;;;;;10.89;100.00;102137.63;4992309;28;20189;-57
2023/06/03 01:28:32;;;;;;;10.80;8.02;;;;;;;10.83;100.00;102139.50;4992444;28;20117;-58
2023/06/03 01:30:58;;;;;;;13.23;7.10;;;;;;;10.77;100.00;102126.41;4983843;28;20100;-57
2023/06/03 01:33:26;;;;;;;11.20;7.75;;;;;;;10.78;100.00;102144.81;4992089;28;20042;-58
2023/06/03 01:35:56;;;;;;;11.63;8.13;;;;;;;10.52;100.00;102102.13;4991046;28;20050;-59
2023/06/03 01:38:23;;;;;;;9.15;7.43;;;;;;;10.78;100.00;102147.44;4990904;28;20568;-58
2023/06/03 01:40:48;;;;;;;12.15;8.02;;;;;;;10.40;100.00;102081.22;4974665;28;20101;-58
2023/06/03 01:43:14;;;;;;;8.70;7.70;;;;;;;10.71;100.00;102144.00;4975030;28;20090;-59
2023/06/03 01:45:39;;;;;;;11.88;8.13;;;;;;;10.02;100.00;102031.63;4989796;28;20038;-56
2023/06/03 01:48:05;;;;;;;14.23;7.93;;;;;;;10.68;100.00;102151.09;4992180;28;20043;-58
2023/06/03 01:50:30;;;;;;;12.90;7.80;;;;;;;10.25;100.00;102073.47;4991020;28;20042;-57
2023/06/03 01:52:56;;;;;;;14.20;8.15;;;;;;;10.59;100.00;102135.41;4990643;28;20413;-56
2023/06/03 01:55:21;;;;;;;12.30;8.15;;;;;;;10.18;100.00;102070.06;4974795;28;20389;-56
2023/06/03 01:57:47;;;;;;;8.38;7.25;;;;;;;10.63;100.00;102153.75;4993589;28;20466;-57
2023/06/03 02:00:13;;;;;;;13.93;8.32;;;;;;;10.23;100.00;102076.16;4995729;28;20038;-57
2023/06/03 02:02:39;;;;;;;11.52;7.40;;;;;;;10.63;100.00;102137.09;4995746;28;20046;-57
2023/06/03 02:05:04;;;;;;;11.05;8.00;;;;;;;10.47;100.00;102118.00;4994840;28;20536;-57
2023/06/03 02:07:30;;;;;;;10.13;8.20;;;;;;;9.85;100.00;102017.78;4982781;28;20054;-57
2023/06/03 02:09:56;;;;;;;10.70;8.05;;;;;;;10.55;100.00;102136.31;5014934;28;20058;-57
2023/06/03 02:12:23;;;;;;;12.02;7.45;;;;;;;10.18;100.00;102075.34;5015408;28;20038;-56
2023/06/03 02:14:53;;;;;;;11.95;7.75;;;;;;;10.15;100.00;102070.09;5013974;28;20080;-57
2023/06/03 02:17:20;;;;;;;12.60;7.60;;;;;;;10.33;100.00;102098.84;5013976;28;20030;-57
2023/06/03 02:19:46;;;;;;;9.63;8.15;;;;;;;10.53;100.00;102136.34;5013366;28;20038;-57
2023/06/03 02:22:12;;;;;;;13.40;8.20;;;;;;;10.52;100.00;102125.81;5013685;28;20034;-57
2023/06/03 02:24:38;;;;;;;10.63;7.97;;;;;;;10.52;100.00;102121.44;5014856;28;20041;-55
2023/06/03 02:27:04;;;;;;;10.93;7.72;;;;;;;10.13;100.00;102071.88;5015039;28;20033;-57
2023/06/03 02:29:30;;;;;;;8.90;7.20;;;;;;;10.49;100.00;102150.41;5014974;28;20478;-56
2023/06/03 02:31:56;;;;;;;8.77;7.00;;;;;;;10.10;100.00;102058.72;5014629;28;20034;-57
2023/06/03 02:34:22;;;;;;;8.43;7.15;;;;;;;10.37;100.00;102110.19;5014635;28;20026;-57
2023/06/03 02:36:48;;;;;;;8.45;6.85;;;;;;;10.13;100.00;102078.00;5013710;28;20064;-57
2023/06/03 02:39:14;;;;;;;8.35;6.88;;;;;;;10.31;100.00;102119.03;5014472;28;20636;-56
2023/06/03 02:41:41;;;;;;;8.02;6.43;;;;;;;9.85;100.00;102044.97;5014709;28;20029;-56
2023/06/03 02:44:07;;;;;;;9.18;6.55;;;;;;;9.87;100.00;102055.44;5014417;28;20161;-58
2023/06/03 02:46:32;;;;;;;10.73;6.70;;;;;;;10.21;100.00;102125.31;5013958;28;20116;-56
2023/06/03 02:48:58;;;;;;;8.10;6.30;;;;;;;10.19;100.00;102121.78;5014420;28;20442;-58
2023/06/03 02:51:23;;;;;;;8.55;6.53;;;;;;;10.15;100.00;102122.72;5013381;28;20073;-56
2023/06/03 02:53:50;;;;;;;8.43;6.63;;;;;;;9.73;100.00;102055.59;5013897;28;20121;-57
2023/06/03 02:56:15;;;;;;;10.77;6.80;;;;;;;10.09;100.00;102120.13;5012979;28;20034;-57
2023/06/03 02:58:40;;;;;;;9.65;7.45;;;;;;;10.07;100.00;102130.66;5012890;28;20041;-56
2023/06/03 03:01:06;;;;;;;11.00;6.22;;;;;;;10.02;100.00;102123.69;5014378;28;20038;-57
2023/06/03 03:03:36;;;;;;;9.15;6.38;;;;;;;9.57;100.00;102061.91;5014245;28;20057;-57
2023/06/03 03:06:06;;;;;;;7.38;5.95;;;;;;;9.55;100.00;102061.00;5013954;28;20052;-57
2023/06/03 03:08:32;;;;;;;8.23;6.23;;;;;;;9.93;100.00;102136.94;5010320;28;20058;-57
2023/06/03 03:10:57;;;;;;;8.48;6.13;;;;;;;9.88;100.00;102122.94;4996543;28;20837;-58
2023/06/03 03:13:22;;;;;;;11.27;6.38;;;;;;;9.90;100.00;102126.44;5014292;28;20484;-57
2023/06/03 03:15:48;;;;;;;10.75;6.13;;;;;;;9.87;100.00;102118.56;5014120;28;20512;-56
2023/06/03 03:18:14;;;;;;;7.60;6.28;;;;;;;9.94;100.00;102130.78;5013898;28;20478;-57
2023/06/03 03:20:40;;;;;;;9.90;6.18;;;;;;;9.85;100.00;102117.72;5013804;28;20065;-55
2023/06/03 03:23:06;;;;;;;9.05;6.55;;;;;;;9.91;100.00;102133.44;5014044;28;20118;-57
2023/06/03 03:25:32;;;;;;;8.23;6.05;;;;;;;9.90;100.00;102135.19;5012785;28;20034;-57
2023/06/03 03:27:58;;;;;;;9.25;6.15;;;;;;;9.53;100.00;102074.19;5013855;28;20044;-56
2023/06/03 03:30:23;;;;;;;8.18;5.68;;;;;;;9.88;100.00;102129.09;5013509;28;20401;-58
2023/06/03 03:32:49;;;;;;;8.05;5.93;;;;;;;9.80;100.00;102125.66;5014000;28;20030;-55
2023/06/03 03:35:16;;;;;;;9.68;6.07;;;;;;;9.88;100.00;102147.50;5013343;28;20492;-56
2023/06/03 03:37:42;;;;;;;8.75;5.53;;;;;;;9.85;100.00;102139.63;5013903;28;20041;-57
2023/06/03 03:40:20;;;;;;;8.23;6.07;;;;;;;9.43;100.00;102067.25;5012389;28;20042;-58
2023/06/03 03:42:50;;;;;;;6.28;5.38;;;;;;;9.40;100.00;102064.66;5012283;28;20034;-58
2023/06/03 03:45:17;;;;;;;6.82;5.07;;;;;;;9.79;100.00;102144.94;5013383;28;20039;-58
2023/06/03 03:47:43;;;;;;;6.97;5.65;;;;;;;9.78;100.00;102137.09;5012058;28;20034;-58
2023/06/03 03:50:35;;;;;;;6.65;5.57;;;;;;;9.76;100.00;102138.84;5013077;28;20084;-56
2023/06/03 03:53:04;;;;;;;6.53;5.47;;;;;;;9.78;100.00;102132.66;5013322;28;20050;-58
2023/06/03 03:55:29;;;;;;;11.63;5.72;;;;;;;9.69;100.00;102131.91;5013311;28;20030;-57
2023/06/03 03:57:55;;;;;;;7.30;6.15;;;;;;;9.77;100.00;102141.47;4994459;28;20030;-57
2023/06/03 04:00:21;;;;;;;8.23;5.65;;;;;;;9.61;100.00;102121.44;5013052;28;20065;-57
2023/06/03 04:02:47;;;;;;;7.88;5.35;;;;;;;9.30;100.00;102064.75;5013197;28;20084;-57
2023/06/03 04:05:15;;;;;;;6.90;5.38;;;;;;;9.70;100.00;102137.13;5011901;28;20029;-56
2023/06/03 04:07:42;;;;;;;8.20;5.28;;;;;;;9.72;100.00;102143.25;5008164;28;20490;-55
2023/06/03 04:10:09;;;;;;;8.68;5.22;;;;;;;9.38;100.00;102083.94;4992079;28;20122;-57
2023/06/03 04:12:36;;;;;;;6.68;5.30;;;;;;;9.68;100.00;102132.78;4974920;28;20038;-56
2023/06/03 04:15:02;;;;;;;7.72;5.18;;;;;;;9.40;100.00;102074.28;4992066;28;20093;-56
2023/06/03 04:17:28;;;;;;;8.93;5.47;;;;;;;9.77;100.00;102146.72;4993132;28;20156;-57
2023/06/03 04:19:53;;;;;;;7.70;5.43;;;;;;;9.46;100.00;102090.88;4991477;28;20046;-56
2023/06/03 04:22:21;;;;;;;6.65;5.57;;;;;;;9.50;100.00;102087.34;4993108;28;20041;-56
2023/06/03 04:24:57;;;;;;;6.78;5.30;;;;;;;9.84;100.00;102137.88;4993112;28;20045;-57
2023/06/03 04:27:22;;;;;;;8.32;5.32;;;;;;;9.97;100.00;102154.44;4991832;28;20030;-58
2023/06/03 04:29:48;;;;;;;5.47;4.97;;;;;;;10.01;100.00;102156.16;4991982;28;20169;-58
2023/06/03 04:32:13;;;;;;;6.38;5.20;;;;;;;9.61;100.00;102082.88;4992980;28;20386;-57
2023/06/03 04:34:54;;;;;;;8.57;4.93;;;;;;;10.10;100.00;102170.09;4992472;28;20035;-57
2023/06/03 04:37:20;;;;;;;8.60;5.63;;;;;;;9.75;100.00;102088.00;4993160;28;20068;-57
2023/06/03 04:39:45;;;;;;;7.35;5.00;;;;;;;9.83;100.00;102087.94;4975516;28;20034;-57
2023/06/03 04:42:12;;;;;;;6.30;4.80;;;;;;;10.24;100.00;102143.69;4975590;28;20033;-57
2023/06/03 04:44:41;;;;;;;5.60;5.10;;;;;;;10.29;100.00;102157.66;4990733;28;20037;-56
2023/06/03 04:47:10;;;;;;;6.47;4.88;;;;;;;10.31;100.00;102147.09;4993066;28;20046;-56
2023/06/03 04:49:39;;;;;;;7.35;4.70;;;;;;;9.94;100.00;102088.72;4992770;28;20045;-57
2023/06/03 04:52:09;;;;;;;5.18;4.68;;;;;;;10.28;100.00;102133.97;4975094;28;20037;-55
2023/06/03 04:54:36;;;;;;;8.57;4.43;;;;;;;10.04;100.00;102093.84;4992578;28;20057;-58
2023/06/03 04:57:01;;;;;;;5.07;4.57;;;;;;;10.14;100.00;102107.81;4992812;28;20117;-56
2023/06/03 04:59:27;;;;;;;6.97;4.72;;;;;;;10.17;100.00;102092.00;4992227;28;20542;-57
2023/06/03 05:01:52;;;;;;;7.18;4.05;;;;;;;10.60;100.00;102156.44;4966341;28;20045;-56
2023/06/03 05:04:19;;;;;;;8.20;4.47;;;;;;;10.21;100.00;102085.84;4992349;28;20039;-56
2023/06/03 05:06:46;;;;;;;9.43;4.70;;;;;;;10.72;100.00;102156.28;4992564;28;20117;-56
2023/06/03 05:09:12;;;;;;;7.80;4.20;;;;;;;10.70;100.00;102147.56;5006895;28;20142;-56
2023/06/03 05:11:38;;;;;;;5.00;3.67;;;;;;;10.49;100.00;102104.78;5011119;28;20140;-56
2023/06/03 05:14:03;;;;;;;6.47;3.75;;;;;;;10.85;100.00;102157.03;5012556;28;20121;-57
2023/06/03 05:16:28;;;;;;;6.80;4.22;;;;;;;11.03;100.00;102180.47;5011074;28;20066;-57
2023/06/03 05:18:53;;;;;;;4.93;3.58;;;;;;;11.12;100.00;102177.72;5010733;28;20063;-57
2023/06/03 05:21:19;;;;;;;6.15;3.67;;;;;;;11.23;100.00;102186.38;5012105;28;20042;-58
2023/06/03 05:23:45;;;;;;;7.68;3.58;;;;;;;11.35;100.00;102187.09;5012091;28;20040;-58
2023/06/03 05:26:10;;;;;;;4.78;3.75;;;;;;;11.05;100.00;102110.19;5012360;28;20091;-56
2023/06/03 05:28:36;;;;;;;10.23;4.07;;;;;;;11.50;100.00;102176.31;5012114;28;20042;-57
2023/06/03 05:31:01;;;;;;;4.53;3.42;;;;;;;11.75;100.00;102193.53;4994658;28;20030;-57
2023/06/03 05:33:29;;;;;;;3.65;3.30;;;;;;;11.93;100.00;102206.44;5015583;28;20062;-57
2023/06/03 05:35:54;;;;;;;5.22;3.13;;;;;;;12.01;100.00;102191.34;5014367;28;20041;-57
2023/06/03 05:38:23;;;;;;;4.25;2.92;;;;;;;11.85;100.00;102142.34;5015453;28;20040;-57
2023/06/03 05:40:50;;;;;;;6.00;3.17;;;;;;;11.98;100.00;102141.25;4998859;28;20469;-58
2023/06/03 05:43:15;;;;;;;4.60;3.42;;;;;;;12.47;100.00;102219.56;5015865;28;20037;-57
2023/06/03 05:45:41;;;;;;;5.35;2.63;;;;;;;12.64;100.00;102236.00;5015590;28;20041;-56
2023/06/03 05:48:07;;;;;;;5.07;3.10;;;;;;;12.76;100.00;102220.78;5015579;28;20044;-58
2023/06/03 05:50:36;;;;;;;3.13;2.67;;;;;;;12.88;100.00;102231.09;5014513;28;20121;-57
2023/06/03 05:53:03;;;;;;;5.38;3.03;;;;;;;13.02;100.00;102214.09;5015376;28;20485;-57
2023/06/03 05:55:28;;;;;;;5.50;2.88;;;;;;;13.06;100.00;102208.72;5015473;28;20022;-58
2023/06/03 05:57:53;;;;;;;4.82;2.67;;;;;;;13.23;100.00;102222.47;5015390;28;20034;-56
2023/06/03 06:00:19;;;;;;;3.95;2.50;;;;;;;12.98;100.00;102166.59;5015440;28;20064;-58
2023/06/03 06:02:44;;;;;;;3.88;2.40;;;;;;;13.45;100.00;102221.13;5015347;28;20064;-56
2023/06/03 06:05:10;;;;;;;4.57;2.63;;;;;;;13.53;100.00;102234.16;5014925;28;20033;-56
2023/06/03 06:07:35;;;;;;;5.93;2.97;;;;;;;13.65;100.00;102233.88;4996192;28;20481;-56
2023/06/03 06:10:00;;;;;;;3.90;2.42;;;;;;;13.71;100.00;102228.47;4995669;28;20509;-55
2023/06/03 06:12:26;;;;;;;3.13;2.30;;;;;;;13.39;100.00;102155.13;4995563;28;20089;-55
2023/06/03 06:14:51;;;;;;;3.50;2.85;;;;;;;13.97;100.00;102230.47;4995306;28;20500;-58
2023/06/03 06:17:16;;;;;;;4.03;2.67;;;;;;;13.98;100.00;102217.19;4995444;28;20030;-55
2023/06/03 06:19:42;;;;;;;5.50;2.97;;;;;;;13.67;100.00;102159.75;4995354;28;20368;-54
2023/06/03 06:22:08;;;;;;;4.85;2.85;;;;;;;14.16;100.00;102222.94;4977655;28;20058;-56
2023/06/03 06:24:33;;;;;;;3.67;2.00;;;;;;;13.90;100.00;102178.59;4995365;28;20442;-57
2023/06/03 06:26:58;;;;;;;3.60;2.97;;;;;;;14.10;100.00;102201.00;4994544;28;20049;-56
2023/06/03 06:29:24;;;;;;;5.70;2.92;;;;;;;14.48;100.00;102244.19;4977780;28;20058;-57
2023/06/03 06:31:51;;;;;;;3.83;2.47;;;;;;;14.53;100.00;102229.06;4993575;28;20402;-55
2023/06/03 06:34:17;;;;;;;3.70;2.13;;;;;;;14.62;100.00;102227.03;4995105;28;20034;-56
2023/06/03 06:36:49;;;;;;;4.32;2.20;;;;;;;14.85;100.00;102246.75;4995136;28;20034;-56
2023/06/03 06:39:34;;;;;;;5.10;2.25;;;;;;;15.01;100.00;102240.97;4995103;28;20053;-54
2023/06/03 06:42:10;;;;;;;4.50;2.40;;;;;;;14.79;100.00;102193.91;4983019;28;20082;-57
2023/06/03 06:44:52;;;;;;;3.90;2.53;;;;;;;15.09;100.00;102241.59;4995017;28;20038;-57
2023/06/03 06:47:22;;;;;;;3.30;2.30;;;;;;;14.87;100.00;102211.31;4994830;28;20026;-55
2023/06/03 06:49:52;;;;;;;3.72;2.05;;;;;;;15.03;100.00;102214.41;4995050;28;20022;-56
2023/06/03 06:52:25;;;;;;;3.67;2.43;;;;;;;15.10;100.00;102203.56;4994768;28;20049;-56
2023/06/03 06:54:53;;;;;;;3.45;1.92;;;;;;;15.63;100.00;102280.72;4978452;28;20035;-54
2023/06/03 06:57:23;;;;;;;6.07;2.17;;;;;;;15.30;100.00;102202.09;4976331;28;20026;-57
2023/06/03 06:59:53;;;;;;;4.22;2.13;;;;;;;15.35;100.00;102216.13;4993628;28;20473;-57
2023/06/03 07:02:19;;;;;;;3.63;2.20;;;;;;;15.13;100.00;102163.69;4994277;28;20520;-57
2023/06/03 07:04:45;;;;;;;3.10;2.10;;;;;;;15.78;100.00;102216.53;4994322;28;20038;-55
2023/06/03 07:07:12;;;;;;;3.33;1.98;;;;;;;16.17;100.00;102268.34;4993949;28;20042;-56
2023/06/03 07:09:37;;;;;;;3.63;2.00;;;;;;;16.28;100.00;102279.50;4993329;28;20054;-56
2023/06/03 07:12:03;;;;;;;2.72;1.60;;;;;;;16.50;100.00;102274.31;4993351;28;20089;-57
2023/06/03 07:14:30;;;;;;;3.00;1.90;;;;;;;16.52;100.00;102282.25;4993330;28;20038;-57
2023/06/03 07:16:55;;;;;;;4.47;1.95;;;;;;;16.52;100.00;102296.38;4994654;28;20117;-56
2023/06/03 07:19:21;;;;;;;3.67;2.08;;;;;;;16.31;100.00;102225.38;4994291;28;20126;-56
2023/06/03 07:21:46;;;;;;;3.35;1.95;;;;;;;16.57;100.00;102265.25;4994421;28;20096;-54
2023/06/03 07:24:12;;;;;;;5.35;2.40;;;;;;;16.47;100.00;102217.72;4994487;28;20417;-55
2023/06/03 07:26:38;;;;;;;3.75;1.70;;;;;;;16.62;100.00;102217.22;4993749;28;20409;-56
2023/06/03 07:29:04;;;;;;;4.68;2.13;;;;;;;17.14;100.00;102280.03;4993177;28;20038;-55
2023/06/03 07:31:31;;;;;;;5.65;2.33;;;;;;;17.09;100.00;102224.34;4994104;28;20034;-54
2023/06/03 07:33:56;;;;;;;3.08;1.80;;;;;;;17.50;100.00;102276.00;4993007;28;20480;-56
2023/06/03 07:36:24;;;;;;;7.10;2.10;;;;;;;17.50;100.00;102214.78;4994374;28;20125;-54
2023/06/03 07:38:56;;;;;;;5.22;2.30;;;;;;;18.31;100.00;102287.84;4992646;28;20482;-57
2023/06/03 07:41:36;;;;;;;4.20;2.00;;;;;;;18.89;100.00;102288.91;4993923;28;20034;-55
2023/06/03 07:44:09;;;;;;;3.72;1.80;;;;;;;18.62;100.00;102244.81;4976714;28;20030;-56
2023/06/03 07:46:43;;;;;;;7.15;1.42;;;;;;;19.33;100.00;102278.03;4992727;28;20045;-56
2023/06/03 07:49:14;;;;;;;4.68;1.80;;;;;;;19.67;100.00;102271.06;4992562;28;20485;-57
2023/06/03 07:51:46;;;;;;;;;;;;;;;20.15;100.00;102275.84;4994299;28;20394;-56
2023/06/03 07:54:12;;;;;;;3.25;1.60;;;;;;;20.29;100.00;102229.72;4992622;28;20280;-57
2023/06/03 07:56:37;;;;;;;2.60;1.33;;;;;;;20.79;100.00;102294.00;4993689;28;20113;-57
2023/06/03 07:59:04;;;;;;;3.60;1.42;;;;;;;20.63;100.00;102285.94;4992403;28;20108;-57
2023/06/03 08:01:30;;;;;;;4.43;1.63;;;;;;;20.60;100.00;102223.69;4991440;28;20026;-54
2023/06/03 08:03:56;;;;;;;3.55;1.35;;;;;;;21.06;100.00;102193.50;4993368;28;20065;-55
2023/06/03 08:06:26;;;;;;;4.85;2.08;;;;;;;21.40;100.00;102240.75;4993244;28;20042;-55
2023/06/03 08:08:53;;;;;;;2.70;1.45;;;;;;;21.48;100.00;102243.84;4993547;28;20050;-55
2023/06/03 08:11:18;;;;;;;1.92;1.20;;;;;;;22.20;100.00;102287.13;4976381;28;20445;-58
2023/06/03 08:13:44;;;;;;;3.22;1.02;;;;;;;22.28;99.62;102290.22;4975945;28;20026;-58
2023/06/03 08:16:14;;;;;;;2.63;1.50;;;;;;;22.49;100.00;102281.84;4993436;28;20038;-58
2023/06/03 08:18:56;;;;;;;3.58;1.48;;;;;;;22.40;99.28;102291.31;4992117;28;20080;-57
2023/06/03 08:21:29;;;;;;;2.88;1.20;;;;;;;22.23;94.78;102286.06;4974848;28;20034;-54
2023/06/03 08:23:54;;;;;;;3.85;1.30;;;;;;;22.76;96.26;102299.03;4991988;28;20054;-54
2023/06/03 08:26:21;;;;;;;5.07;1.00;;;;;;;22.91;93.39;102290.06;4992616;28;20039;-56
2023/06/03 08:28:46;;;;;;;2.10;1.40;;;;;;;23.44;96.78;102281.34;4992573;28;20030;-56
2023/06/03 08:31:13;;;;;;;2.20;0.98;;;;;;;23.15;87.79;102178.38;4992957;28;20036;-57
2023/06/03 08:33:38;;;;;;;2.17;1.20;;;;;;;23.08;84.91;102195.00;4991950;28;20441;-58
2023/06/03 08:36:04;;;;;;;2.00;1.13;;;;;;;23.69;85.15;102253.78;4993017;28;20042;-57
2023/06/03 08:38:29;;;;;;;5.57;1.20;;;;;;;23.65;86.63;102223.53;4990551;28;20038;-57
2023/06/03 08:40:55;;;;;;;3.35;1.23;;;;;;;23.55;80.64;102280.69;4975718;28;20065;-59
2023/06/03 08:43:21;;;;;;;4.10;1.27;;;;;;;23.61;93.85;102278.47;4991797;28;20041;-58
2023/06/03 08:45:56;;;;;;;1.08;0.95;;;;;;;23.27;81.32;102271.63;4991478;28;20402;-59
2023/06/03 08:48:32;;;;;;;1.75;1.10;;;;;;;23.45;88.24;102267.81;4974477;28;20054;-55
2023/06/03 08:51:04;;;;;;;6.40;1.00;;;;;;;23.26;78.61;102256.47;4991623;28;20030;-54
2023/06/03 08:53:37;;;;;;;4.47;0.93;;;;;;;23.29;77.51;102213.28;4974353;28;20121;-57
2023/06/03 08:56:03;;;;;;;4.20;1.20;;;;;;;23.02;79.67;102214.19;4972293;28;20061;-55
2023/06/03 08:58:36;;;;;;;4.07;1.10;;;;;;;23.25;79.31;102202.84;4971126;28;20038;-53
2023/06/03 09:01:02;;;;;;;2.35;1.33;;;;;;;23.26;81.43;102212.66;4973375;28;20249;-53
2023/06/03 09:03:28;;;;;;;1.77;0.70;;;;;;;23.40;81.41;102255.66;4955714;28;20037;-52
2023/06/03 09:05:54;;;;;;;3.22;1.20;;;;;;;23.31;75.02;102202.47;4955775;28;20046;-54
2023/06/03 09:08:20;;;;;;;3.97;1.20;;;;;;;23.83;73.82;102268.03;4980905;28;20054;-53
2023/06/03 09:10:46;;;;;;;2.85;1.05;;;;;;;24.12;79.12;102263.47;5008774;28;20038;-55
2023/06/03 09:13:13;;;;;;;5.05;1.00;;;;;;;24.02;69.50;102206.69;5016567;28;20038;-51
2023/06/03 09:15:39;;;;;;;6.63;1.30;;;;;;;24.01;73.75;102271.34;5016498;28;20412;-55
2023/06/03 09:18:04;;;;;;;1.30;1.02;;;;;;;24.62;72.07;102268.09;4998834;28;20033;-54
2023/06/03 09:20:30;;;;;;;1.65;1.00;;;;;;;24.28;64.37;102264.19;5016261;28;20048;-54
2023/06/03 09:22:56;;;;;;;3.75;1.15;;;;;;;24.71;70.34;102213.63;5014949;28;20093;-50
2023/06/03 09:25:21;;;;;;;3.45;1.25;;;;;;;24.89;82.87;102217.75;5014998;28;20030;-54
2023/06/03 09:27:46;;;;;;;3.92;1.30;;;;;;;24.89;66.29;102247.38;4997749;28;20053;-55
2023/06/03 09:30:12;;;;;;;1.45;1.20;;;;;;;24.97;63.21;102261.16;5014725;28;20437;-51
2023/06/03 09:32:38;;;;;;;3.22;1.23;;;;;;;25.18;57.18;102197.69;5015766;28;20034;-55
2023/06/03 09:35:06;;;;;;;4.20;1.35;;;;;;;24.46;59.78;102178.63;4998428;28;20034;-53
2023/06/03 09:37:33;;;;;;;1.05;0.95;;;;;;;25.18;62.72;102262.34;4998627;28;20044;-54
2023/06/03 09:39:59;;;;;;;5.78;1.30;;;;;;;25.41;61.80;102268.78;4998198;28;20037;-56
2023/06/03 09:42:43;;;;;;;2.08;1.27;;;;;;;24.18;60.42;102186.84;5015410;28;20030;-54
2023/06/03 09:45:30;;;;;;;2.78;1.10;;;;;;;24.47;62.04;102251.19;4998461;28;20025;-51
2023/06/03 09:47:56;;;;;;;5.13;1.48;;;;;;;25.15;68.08;102253.63;5015521;28;20040;-54
2023/06/03 09:50:23;;;;;;;3.75;2.03;;;;;;;25.94;77.19;102254.09;5015560;28;20030;-53
2023/06/03 09:52:49;;;;;;;3.85;1.70;;;;;;;25.70;60.13;102250.50;5015813;28;20121;-54
2023/06/03 09:55:15;;;;;;;6.93;2.00;;;;;;;26.36;62.32;102251.88;5013628;28;20113;-55
2023/06/03 09:57:41;;;;;;;1.60;1.30;;;;;;;26.67;58.18;102195.38;5015734;28;20408;-55
2023/06/03 10:00:07;;;;;;;4.30;1.50;;;;;;;27.14;55.37;102259.19;5015304;28;20042;-53
2023/06/03 10:02:40;;;;;;;4.00;1.85;;;;;;;27.13;59.06;102259.28;4998071;28;20028;-55
2023/06/03 10:05:28;;;;;;;3.40;1.67;;;;;;;27.00;53.81;102255.88;5015317;28;20095;-55
2023/06/03 10:07:55;;;;;;;4.38;1.20;;;;;;;27.25;58.12;102253.78;5013416;28;20054;-56
2023/06/03 10:10:20;;;;;;;3.75;1.30;;;;;;;26.57;52.38;102201.59;4995728;28;20026;-54
2023/06/03 10:12:48;;;;;;;2.45;1.10;;;;;;;26.64;53.86;102235.25;4994657;28;20120;-52
2023/06/03 10:15:17;;;;;;;8.48;1.40;;;;;;;26.49;64.96;102182.44;4995065;28;20038;-55
2023/06/03 10:17:45;;;;;;;1.40;1.25;;;;;;;25.89;48.32;102196.06;4976858;28;20061;-52
2023/06/03 10:20:11;;;;;;;2.00;1.30;;;;;;;26.70;53.34;102250.97;4977576;28;20393;-53
2023/06/03 10:22:39;;;;;;;2.45;1.17;;;;;;;26.24;59.01;102256.34;4995358;28;20038;-53
2023/06/03 10:25:07;;;;;;;1.23;1.02;;;;;;;26.72;65.30;102257.13;4994284;28;20074;-55
2023/06/03 10:27:32;;;;;;;2.45;1.50;;;;;;;26.69;54.15;102173.63;4993840;28;20474;-54
2023/06/03 10:29:59;;;;;;;2.15;1.23;;;;;;;26.24;55.48;102183.47;4994262;28;20045;-55
2023/06/03 10:32:25;;;;;;;1.25;1.15;;;;;;;26.98;53.99;102265.91;4977668;28;20562;-54
2023/06/03 10:34:51;;;;;;;4.30;1.52;;;;;;;26.59;55.67;102210.47;4995115;28;20478;-55
2023/06/03 10:37:17;;;;;;;2.72;1.23;;;;;;;26.73;61.33;102199.41;4976418;28;20060;-54
2023/06/03 10:39:43;;;;;;;3.70;1.50;;;;;;;27.09;52.83;102263.22;4993276;28;20482;-54
2023/06/03 10:42:10;;;;;;;2.08;1.27;;;;;;;27.15;51.71;102268.13;4977394;28;20117;-54
2023/06/03 10:44:36;;;;;;;4.30;1.80;;;;;;;26.92;56.09;102266.38;4992945;28;20120;-55
2023/06/03 10:47:05;;;;;;;2.10;1.30;;;;;;;27.37;66.86;102260.91;4993877;28;20334;-58
2023/06/03 10:49:33;;;;;;;4.70;1.63;;;;;;;27.54;55.31;102240.63;4977027;28;20042;-57
2023/06/03 10:52:05;;;;;;;3.33;1.30;;;;;;;27.23;56.25;102249.47;4977631;28;20040;-59
2023/06/03 10:54:33;;;;;;;2.97;1.15;;;;;;;27.28;66.78;102256.25;4994421;28;20043;-58
2023/06/03 10:57:06;;;;;;;3.60;1.52;;;;;;;27.39;58.89;102214.78;4994331;28;20401;-55
2023/06/03 10:59:43;;;;;;;2.22;1.40;;;;;;;27.19;46.94;102261.50;4977787;28;20045;-58
2023/06/03 11:02:09;;;;;;;3.28;1.45;;;;;;;26.08;51.53;102240.44;4989874;28;20049;-58
2023/06/03 11:04:36;;;;;;;5.05;1.30;;;;;;;26.01;62.13;102235.59;4994152;28;20386;-59
2023/06/03 11:07:03;;;;;;;1.35;1.05;;;;;;;26.07;52.77;102254.88;4994221;28;20046;-59
2023/06/03 11:09:38;;;;;;;4.63;1.38;;;;;;;26.17;61.93;102204.69;4994680;28;20402;-59
2023/06/03 11:12:09;;;;;;;1.23;1.10;;;;;;;26.85;53.80;102260.63;4994597;28;20040;-59
2023/06/03 11:14:39;;;;;;;5.55;1.30;;;;;;;27.06;66.04;102264.31;4994353;28;20050;-58
2023/06/03 11:17:05;;;;;;;1.55;1.13;;;;;;;27.58;58.50;102258.34;4993589;28;20046;-59
2023/06/03 11:19:44;;;;;;;2.08;1.58;;;;;;;27.19;45.54;102256.09;4994350;28;20043;-59
2023/06/03 11:22:10;;;;;;;2.65;1.42;;;;;;;26.82;53.06;102177.13;4994174;28;20243;-59